Skidmore, Kansas
Current Conditions -  °F | °C
As of 4:55 PM on Tuesday 25 Nov 2014 (Local Time) from KPTS Reporting Station
Clear Clear  
Wind Chill: 39°   Ceiling: Unl
Heat Index: 42°   Visibility: 10mi
Dew Point: 25°   Wind: 5mph
Humidity: 50%   Direction: 250°WSW
Pressure: 30.13"   Gusts: NA
Location:  37.2661°N, 94.8513°W
Report Text: KPTS 252255Z AUTO 25004KT 10SM CLR 06/M04 A3013 RMK AO2 T00561041
Loading
Personal Weather Stations






























Interactive Weather Map New forecast layout! Learn more

10-Day Weather Forecast

Advertisements
Track Severe Weather on mobile